Time;durP1;ratioP1;P1;durP2;ratioP2;P2;SDS_P1;SDS_P2;PMS_P1;PMS_P2;Temp;Humidity;BMP_temperature;BMP_pressure;BME280_temperature;BME280_humidity;BME280_pressure;Samples;Min_cycle;Max_cycle;Signal;HPM_P1;HPM_P2
2021/08/27 00:02:18;;;;;;;6.27;3.00;;;14.70;99.90;;;;;;5120707;28;20622;-66
2021/08/27 00:04:45;;;;;;;8.17;3.70;;;14.70;99.90;;;;;;5119775;28;20592;-66
2021/08/27 00:07:13;;;;;;;3.73;3.43;;;14.80;99.90;;;;;;5119616;28;21169;-67
2021/08/27 00:09:39;;;;;;;4.57;3.37;;;14.80;99.90;;;;;;5118640;28;20593;-67
2021/08/27 00:12:06;;;;;;;5.90;3.13;;;14.80;99.90;;;;;;5118992;28;20604;-66
2021/08/27 00:14:34;;;;;;;6.40;3.20;;;14.90;99.90;;;;;;5118930;28;20620;-66
2021/08/27 00:17:00;;;;;;;3.60;2.63;;;14.90;99.90;;;;;;5118713;28;20670;-66
2021/08/27 00:19:27;;;;;;;3.53;3.20;;;14.90;99.90;;;;;;5119125;28;20991;-65
2021/08/27 00:21:56;;;;;;;2.97;2.63;;;14.90;99.90;;;;;;5118717;28;20620;-67
2021/08/27 00:24:22;;;;;;;5.33;3.13;;;15.00;99.90;;;;;;5118092;28;20608;-66
2021/08/27 00:26:49;;;;;;;4.90;3.33;;;15.00;99.90;;;;;;5118203;28;20608;-67
2021/08/27 00:29:16;;;;;;;4.83;3.37;;;15.00;99.90;;;;;;5117813;28;20624;-66
2021/08/27 00:31:42;;;;;;;4.20;2.80;;;15.00;99.90;;;;;;5117556;28;20601;-66
2021/08/27 00:34:08;;;;;;;6.17;3.57;;;15.10;99.90;;;;;;5098826;28;21158;-66
2021/08/27 00:36:35;;;;;;;4.43;2.70;;;15.10;99.90;;;;;;5117928;28;20703;-67
2021/08/27 00:39:01;;;;;;;8.30;3.00;;;15.10;99.90;;;;;;5117472;28;20599;-67
2021/08/27 00:41:27;;;;;;;5.20;3.57;;;15.10;99.90;;;;;;5116904;28;20999;-67
2021/08/27 00:43:53;;;;;;;5.40;3.73;;;15.10;99.90;;;;;;5116416;28;20588;-67
2021/08/27 00:46:20;;;;;;;6.87;3.40;;;15.10;99.90;;;;;;5117162;28;20596;-64
2021/08/27 00:48:46;;;;;;;6.27;3.07;;;15.20;99.90;;;;;;5116725;28;20604;-64
2021/08/27 00:51:12;;;;;;;6.10;3.70;;;15.20;99.90;;;;;;5116080;28;20627;-65
2021/08/27 00:53:39;;;;;;;3.40;3.10;;;15.20;99.90;;;;;;5117013;28;20742;-65
2021/08/27 00:56:07;;;;;;;5.57;3.30;;;15.20;99.90;;;;;;5116767;28;20600;-65
2021/08/27 00:58:33;;;;;;;3.23;2.93;;;15.10;99.90;;;;;;5116250;28;20644;-65
2021/08/27 01:01:01;;;;;;;4.33;3.33;;;15.10;99.90;;;;;;5117033;28;20597;-65
2021/08/27 01:03:27;;;;;;;5.27;3.17;;;15.10;99.90;;;;;;5099094;28;20648;-65
2021/08/27 01:06:13;;;;;;;4.97;3.37;;;15.00;99.90;;;;;;5118208;28;20985;-65
2021/08/27 01:08:58;;;;;;;4.70;3.40;;;15.10;99.90;;;;;;5119943;28;20560;-65
2021/08/27 01:11:31;;;;;;;6.70;3.60;;;15.20;99.90;;;;;;5119779;28;20588;-65
2021/08/27 01:14:03;;;;;;;5.00;3.43;;;15.20;99.90;;;;;;5119797;28;20580;-65
2021/08/27 01:16:49;;;;;;;3.47;2.83;;;15.20;99.90;;;;;;5120193;28;20624;-65
2021/08/27 01:19:49;;;;;;;7.77;3.73;;;15.30;99.90;;;;;;5119590;28;20564;-65
2021/08/27 01:22:24;;;;;;;4.10;3.40;;;15.30;99.90;;;;;;5123701;28;20567;-65
2021/08/27 01:24:53;;;;;;;5.70;3.70;;;15.40;99.90;;;;;;5123925;28;20610;-65
2021/08/27 01:27:21;;;;;;;6.00;3.70;;;15.40;99.90;;;;;;5122796;28;20697;-65
2021/08/27 01:30:03;;;;;;;6.87;3.40;;;15.40;99.90;;;;;;5104472;28;20762;-65
2021/08/27 01:33:06;;;;;;;8.17;3.60;;;15.30;99.90;;;;;;5123071;28;20982;-65
2021/08/27 01:35:33;;;;;;;9.03;4.37;;;15.30;99.90;;;;;;5084402;28;20711;-65
2021/08/27 01:38:04;;;;;;;7.20;3.87;;;15.20;99.90;;;;;;5120771;28;20650;-65
2021/08/27 01:40:32;;;;;;;5.93;4.50;;;15.20;99.90;;;;;;5121857;28;20572;-65
2021/08/27 01:43:01;;;;;;;7.50;4.53;;;15.00;99.90;;;;;;5121939;28;20627;-65
2021/08/27 01:45:29;;;;;;;6.30;4.73;;;15.00;99.90;;;;;;5121580;28;21218;-65
2021/08/27 01:47:59;;;;;;;7.20;4.13;;;14.90;99.90;;;;;;5102813;28;20746;-65
2021/08/27 01:50:26;;;;;;;6.50;4.57;;;14.80;99.90;;;;;;5121006;28;20616;-67
2021/08/27 01:52:52;;;;;;;6.67;3.93;;;14.70;99.90;;;;;;5121715;28;20974;-65
2021/08/27 01:55:22;;;;;;;5.20;4.70;;;14.70;99.90;;;;;;5121588;28;21058;-66
2021/08/27 01:57:49;;;;;;;4.80;4.37;;;14.50;99.90;;;;;;5121387;28;21093;-65
2021/08/27 02:00:16;;;;;;;5.63;4.00;;;14.40;99.90;;;;;;5120897;28;20622;-65
2021/08/27 02:02:44;;;;;;;8.13;4.20;;;14.30;99.90;;;;;;5120936;28;20719;-65
2021/08/27 02:05:11;;;;;;;6.13;4.07;;;14.30;99.90;;;;;;5121768;28;20593;-66
2021/08/27 02:07:37;;;;;;;4.00;3.63;;;14.20;99.90;;;;;;5102549;28;21204;-65
2021/08/27 02:10:05;;;;;;;5.73;3.77;;;14.10;99.90;;;;;;5121869;28;20669;-65
2021/08/27 02:12:32;;;;;;;11.80;4.50;;;14.10;99.90;;;;;;5121569;28;20596;-65
2021/08/27 02:14:59;;;;;;;6.60;3.90;;;14.20;99.90;;;;;;5121242;28;20617;-66
2021/08/27 02:17:26;;;;;;;6.90;4.10;;;14.30;99.90;;;;;;5121372;28;20647;-65
2021/08/27 02:19:53;;;;;;;5.33;3.73;;;14.30;99.90;;;;;;5121637;28;20615;-65
2021/08/27 02:22:23;;;;;;;4.07;3.80;;;14.40;99.90;;;;;;5119893;28;20720;-66
2021/08/27 02:25:04;;;;;;;3.67;3.47;;;14.50;99.90;;;;;;5121640;28;20604;-66
2021/08/27 02:27:33;;;;;;;6.03;4.03;;;14.50;99.90;;;;;;5121666;28;20539;-65
2021/08/27 02:30:01;;;;;;;3.23;3.03;;;14.50;99.90;;;;;;5121834;28;21129;-66
2021/08/27 02:32:29;;;;;;;12.80;4.00;;;14.60;99.90;;;;;;5121679;28;20578;-66
2021/08/27 02:35:00;;;;;;;6.73;3.80;;;14.60;99.90;;;;;;5121728;28;20567;-66
2021/08/27 02:37:32;;;;;;;5.37;3.40;;;14.50;99.90;;;;;;5120400;28;20648;-65
2021/08/27 02:39:59;;;;;;;3.70;3.40;;;14.40;99.90;;;;;;5120050;28;21022;-66
2021/08/27 02:42:31;;;;;;;4.33;3.60;;;14.50;99.90;;;;;;5102960;28;20644;-65
2021/08/27 02:45:02;;;;;;;5.60;4.17;;;14.40;99.90;;;;;;5121544;28;20563;-66
2021/08/27 02:47:29;;;;;;;6.70;4.00;;;14.50;99.90;;;;;;5121796;28;20643;-66
2021/08/27 02:49:55;;;;;;;7.40;3.97;;;14.40;99.90;;;;;;5120893;28;20567;-65
2021/08/27 02:52:36;;;;;;;7.60;4.30;;;14.40;99.90;;;;;;5119333;28;20592;-65
2021/08/27 02:55:11;;;;;;;5.80;3.83;;;14.30;99.90;;;;;;5119035;28;20518;-65
2021/08/27 02:58:01;;;;;;;5.90;4.07;;;14.20;99.90;;;;;;5119187;28;20578;-65
2021/08/27 03:00:33;;;;;;;5.30;4.80;;;14.20;99.90;;;;;;5119435;28;20616;-65
2021/08/27 03:03:03;;;;;;;5.07;4.60;;;14.20;99.90;;;;;;5120121;28;20190;-65
2021/08/27 03:05:38;;;;;;;8.77;5.53;;;14.10;99.90;;;;;;5120213;28;20601;-65
2021/08/27 03:08:07;;;;;;;8.23;4.87;;;14.00;99.90;;;;;;5120623;28;20944;-65
2021/08/27 03:10:48;;;;;;;13.00;6.20;;;13.90;99.90;;;;;;5121177;28;20632;-66
2021/08/27 03:13:24;;;;;;;7.90;6.27;;;13.80;99.90;;;;;;5107621;28;21126;-65
2021/08/27 03:16:00;;;;;;;7.60;6.87;;;13.80;99.90;;;;;;5105151;28;21169;-65
2021/08/27 03:18:48;;;;;;;8.87;6.07;;;13.80;99.90;;;;;;5100597;28;21007;-65
2021/08/27 03:21:22;;;;;;;6.60;5.80;;;13.80;99.90;;;;;;5100607;28;20605;-65
2021/08/27 03:23:50;;;;;;;5.93;5.30;;;13.80;99.90;;;;;;5100864;28;20605;-65
2021/08/27 03:26:20;;;;;;;6.47;5.73;;;13.80;99.90;;;;;;5101160;28;20699;-66
2021/08/27 03:28:53;;;;;;;8.37;5.90;;;13.70;99.90;;;;;;5101125;28;20569;-65
2021/08/27 03:31:24;;;;;;;10.70;5.87;;;13.60;99.90;;;;;;5101052;28;20548;-66
2021/08/27 03:33:56;;;;;;;7.10;5.70;;;13.70;99.90;;;;;;5101687;28;20528;-66
2021/08/27 03:36:26;;;;;;;6.80;5.70;;;13.80;99.90;;;;;;5101134;28;20605;-66
2021/08/27 03:38:55;;;;;;;9.90;7.07;;;13.80;99.90;;;;;;5099585;28;21002;-65
2021/08/27 03:41:26;;;;;;;9.67;7.20;;;13.80;99.90;;;;;;5100126;28;20647;-65
2021/08/27 03:43:54;;;;;;;6.90;5.80;;;13.90;99.90;;;;;;5100465;28;21076;-65
2021/08/27 03:46:21;;;;;;;7.90;6.00;;;13.90;99.90;;;;;;5099916;28;20617;-66
2021/08/27 03:48:49;;;;;;;5.37;4.97;;;13.90;99.90;;;;;;5100163;28;20662;-65
2021/08/27 03:51:17;;;;;;;6.30;5.80;;;13.90;99.90;;;;;;5098209;28;20624;-65
2021/08/27 03:53:45;;;;;;;7.87;6.50;;;13.90;99.90;;;;;;5099956;28;20621;-66
2021/08/27 03:56:14;;;;;;;7.50;5.60;;;13.80;99.90;;;;;;5100176;28;20622;-66
2021/08/27 03:58:42;;;;;;;6.03;5.50;;;13.80;99.90;;;;;;5099925;28;20655;-66
2021/08/27 04:01:08;;;;;;;6.20;5.70;;;13.70;99.90;;;;;;5098733;28;20627;-66
2021/08/27 04:03:35;;;;;;;7.63;6.20;;;13.70;99.90;;;;;;5100387;28;21035;-66
2021/08/27 04:06:07;;;;;;;7.60;5.87;;;13.60;99.90;;;;;;5100935;28;20576;-66
2021/08/27 04:08:35;;;;;;;8.40;5.70;;;13.60;99.90;;;;;;5099345;28;21205;-66
2021/08/27 04:11:03;;;;;;;7.97;6.77;;;13.50;99.90;;;;;;5097979;28;20589;-66
2021/08/27 04:13:32;;;;;;;10.47;7.10;;;13.50;99.90;;;;;;5098601;28;20593;-66
2021/08/27 04:15:59;;;;;;;11.03;6.53;;;13.50;99.90;;;;;;5098674;28;20598;-66
2021/08/27 04:18:25;;;;;;;8.33;7.43;;;13.50;99.90;;;;;;5098418;28;20656;-66
2021/08/27 04:20:51;;;;;;;8.20;7.47;;;13.40;99.90;;;;;;5098310;28;21215;-66
2021/08/27 04:23:18;;;;;;;11.03;7.63;;;13.40;99.90;;;;;;5098347;28;21144;-66
2021/08/27 04:25:45;;;;;;;8.80;7.00;;;13.40;99.90;;;;;;5097926;28;20617;-66
2021/08/27 04:28:11;;;;;;;27.10;12.83;;;13.40;99.90;;;;;;5099079;28;21162;-66
2021/08/27 04:30:38;;;;;;;7.87;6.80;;;13.50;99.90;;;;;;5099100;28;20601;-66
2021/08/27 04:33:05;;;;;;;10.13;6.70;;;13.40;99.90;;;;;;5097122;28;20986;-66
2021/08/27 04:35:31;;;;;;;9.70;8.13;;;13.40;99.90;;;;;;5097235;28;20658;-66
2021/08/27 04:37:57;;;;;;;11.30;7.20;;;13.40;99.90;;;;;;5096888;28;20615;-66
2021/08/27 04:40:24;;;;;;;8.90;5.50;;;13.30;99.90;;;;;;5097150;28;21086;-66
2021/08/27 04:42:51;;;;;;;9.20;6.67;;;13.30;99.90;;;;;;5096792;28;20609;-66
2021/08/27 04:45:18;;;;;;;7.30;5.77;;;13.20;99.90;;;;;;5096199;28;20629;-66
2021/08/27 04:47:44;;;;;;;8.07;6.30;;;13.10;99.90;;;;;;5095696;28;20649;-66
2021/08/27 04:50:12;;;;;;;8.20;6.43;;;13.10;99.90;;;;;;5096209;28;20294;-66
2021/08/27 04:52:40;;;;;;;7.05;6.43;;;13.10;99.90;;;;;;5096238;28;20613;-66
2021/08/27 04:55:07;;;;;;;6.50;5.90;;;13.10;99.90;;;;;;5097135;28;20651;-66
2021/08/27 04:57:36;;;;;;;7.87;5.77;;;13.00;99.90;;;;;;5100255;28;20215;-66
2021/08/27 05:00:07;;;;;;;7.03;6.43;;;12.90;99.90;;;;;;5099204;28;20624;-66
2021/08/27 05:02:35;;;;;;;6.05;5.65;;;12.80;99.90;;;;;;5098158;28;20560;-66
2021/08/27 05:05:02;;;;;;;6.00;5.50;;;12.80;99.90;;;;;;5099160;28;20191;-66
2021/08/27 05:07:28;;;;;;;5.50;4.93;;;12.70;99.90;;;;;;5098702;28;20618;-66
2021/08/27 05:09:54;;;;;;;6.38;5.78;;;12.60;99.90;;;;;;5098991;28;20195;-66
2021/08/27 05:12:21;;;;;;;6.90;5.40;;;12.50;99.90;;;;;;5099306;28;20183;-66
2021/08/27 05:14:47;;;;;;;6.22;5.63;;;12.50;99.90;;;;;;5098807;28;20192;-66
2021/08/27 05:17:13;;;;;;;6.10;5.60;;;12.50;99.90;;;;;;5098823;28;20195;-66
2021/08/27 05:19:40;;;;;;;8.05;6.18;;;12.50;99.90;;;;;;5098534;28;20589;-66
2021/08/27 05:22:06;;;;;;;8.45;6.30;;;12.60;99.90;;;;;;5098702;28;20666;-66
2021/08/27 05:24:32;;;;;;;7.37;6.67;;;12.60;99.90;;;;;;5098413;28;20249;-66
2021/08/27 05:26:59;;;;;;;7.00;6.23;;;12.70;99.90;;;;;;5096497;28;20613;-65
2021/08/27 05:29:25;;;;;;;8.80;8.00;;;12.70;99.90;;;;;;5098130;28;20575;-66
2021/08/27 05:31:51;;;;;;;9.80;7.95;;;12.70;99.90;;;;;;5097998;28;20302;-66
2021/08/27 05:34:20;;;;;;;8.40;7.70;;;12.70;99.90;;;;;;5097822;28;20620;-66
2021/08/27 05:36:46;;;;;;;8.90;7.50;;;12.60;99.90;;;;;;5097463;28;20207;-66
2021/08/27 05:39:13;;;;;;;8.05;7.18;;;12.60;99.90;;;;;;5096615;28;20230;-66
2021/08/27 05:41:43;;;;;;;12.40;8.30;;;12.60;99.90;;;;;;5097784;28;20242;-66
2021/08/27 05:44:10;;;;;;;10.60;7.65;;;12.60;99.90;;;;;;5097454;28;20211;-66
2021/08/27 05:46:36;;;;;;;8.90;8.07;;;12.70;99.90;;;;;;5098022;28;20669;-66
2021/08/27 05:49:02;;;;;;;13.70;8.77;;;12.80;99.90;;;;;;5098092;28;20234;-66
2021/08/27 05:51:29;;;;;;;13.55;8.98;;;12.80;99.90;;;;;;5098313;28;20241;-66
2021/08/27 05:53:56;;;;;;;10.98;8.45;;;12.80;99.90;;;;;;5097806;28;20662;-66
2021/08/27 05:56:22;;;;;;;10.52;8.50;;;12.80;99.90;;;;;;5098395;28;20199;-66
2021/08/27 05:58:48;;;;;;;9.48;8.48;;;12.90;99.90;;;;;;5098413;28;20234;-66
2021/08/27 06:01:15;;;;;;;9.90;8.63;;;13.00;99.90;;;;;;5098392;28;20207;-66
2021/08/27 06:03:41;;;;;;;10.27;9.27;;;13.10;99.90;;;;;;5098491;28;20617;-66
2021/08/27 06:06:07;;;;;;;9.77;8.48;;;13.20;99.90;;;;;;5097885;28;20621;-66
2021/08/27 06:08:36;;;;;;;10.57;9.32;;;13.30;99.90;;;;;;5097354;28;20204;-66
2021/08/27 06:11:02;;;;;;;12.00;9.60;;;13.30;99.90;;;;;;5097612;28;20183;-66
2021/08/27 06:13:29;;;;;;;9.80;8.38;;;13.30;99.90;;;;;;5098289;28;20191;-66
2021/08/27 06:15:57;;;;;;;12.30;9.25;;;13.40;99.90;;;;;;5097891;28;20668;-66
2021/08/27 06:18:23;;;;;;;9.05;8.32;;;13.50;99.90;;;;;;5098780;28;20219;-66
2021/08/27 06:20:50;;;;;;;14.20;9.50;;;13.60;99.90;;;;;;5099272;28;20294;-66
2021/08/27 06:23:19;;;;;;;11.27;9.75;;;13.70;99.90;;;;;;5098362;28;20202;-66
2021/08/27 06:25:46;;;;;;;12.35;8.90;;;13.80;99.90;;;;;;5108873;28;20197;-66
2021/08/27 06:28:13;;;;;;;9.83;8.83;;;13.90;99.90;;;;;;5118210;28;20199;-66
2021/08/27 06:30:40;;;;;;;9.50;7.53;;;14.10;99.90;;;;;;5117237;28;20620;-66
2021/08/27 06:33:07;;;;;;;13.60;8.50;;;14.20;99.90;;;;;;5116662;28;20632;-66
2021/08/27 06:35:34;;;;;;;10.07;8.00;;;14.20;99.90;;;;;;5117143;28;20660;-66
2021/08/27 06:38:21;;;;;;;9.67;7.30;;;14.40;99.90;;;;;;5098813;28;20649;-66
2021/08/27 06:40:51;;;;;;;8.57;7.30;;;14.40;99.90;;;;;;5104977;28;20640;-66
2021/08/27 06:43:18;;;;;;;7.27;6.70;;;14.40;99.90;;;;;;5116539;28;20666;-66
2021/08/27 06:45:47;;;;;;;6.93;6.20;;;14.40;99.90;;;;;;5116585;28;20616;-65
2021/08/27 06:48:13;;;;;;;8.00;6.37;;;14.30;99.90;;;;;;5116207;28;20660;-66
2021/08/27 06:50:39;;;;;;;9.00;7.17;;;14.40;99.90;;;;;;5116326;28;20652;-66
2021/08/27 06:53:07;;;;;;;7.07;5.90;;;14.60;99.90;;;;;;5102580;28;20625;-66
2021/08/27 06:55:35;;;;;;;6.70;4.83;;;14.80;99.90;;;;;;5114638;28;20627;-66
2021/08/27 06:58:02;;;;;;;9.13;4.43;;;14.90;99.90;;;;;;5101925;28;20660;-66
2021/08/27 07:00:28;;;;;;;7.80;5.20;;;15.00;99.90;;;;;;5115577;28;20620;-66
2021/08/27 07:02:55;;;;;;;7.83;4.73;;;15.20;99.90;;;;;;5115027;28;21183;-66
2021/08/27 07:05:21;;;;;;;6.70;6.00;;;15.40;99.90;;;;;;5115423;28;20616;-66
2021/08/27 07:07:48;;;;;;;7.73;5.00;;;15.30;99.90;;;;;;5115392;28;20619;-66
2021/08/27 07:10:14;;;;;;;4.10;3.60;;;15.30;99.90;;;;;;5114931;28;21154;-67
2021/08/27 07:12:41;;;;;;;4.60;3.63;;;15.20;99.90;;;;;;5115689;28;20631;-66
2021/08/27 07:15:09;;;;;;;9.67;5.33;;;15.40;99.90;;;;;;5115767;28;20632;-66
2021/08/27 07:17:35;;;;;;;5.57;4.30;;;15.50;99.90;;;;;;5116309;28;20605;-66
2021/08/27 07:20:02;;;;;;;8.73;4.10;;;15.80;99.90;;;;;;5115720;28;20884;-66
2021/08/27 07:22:31;;;;;;;3.10;2.90;;;15.90;99.90;;;;;;5116972;28;20612;-66
2021/08/27 07:24:58;;;;;;;3.37;3.13;;;16.10;99.90;;;;;;5116556;28;20609;-66
2021/08/27 07:27:24;;;;;;;4.87;3.70;;;16.30;99.90;;;;;;5117292;28;20669;-66
2021/08/27 07:29:50;;;;;;;5.10;3.30;;;16.30;99.90;;;;;;5117250;28;20622;-66
2021/08/27 07:32:17;;;;;;;4.13;3.80;;;16.60;99.90;;;;;;5115851;28;20617;-65
2021/08/27 07:34:44;;;;;;;5.13;3.90;;;16.30;99.90;;;;;;5115081;28;20612;-65
2021/08/27 07:37:12;;;;;;;9.10;4.13;;;16.50;99.90;;;;;;5114833;28;21138;-65
2021/08/27 07:39:39;;;;;;;6.93;3.50;;;16.80;99.90;;;;;;5115722;28;20644;-65
2021/08/27 07:42:09;;;;;;;4.60;4.20;;;16.70;99.90;;;;;;5115266;28;20644;-65
2021/08/27 07:44:36;;;;;;;6.90;4.47;;;16.90;99.90;;;;;;5115535;28;20593;-65
2021/08/27 07:47:03;;;;;;;7.10;4.10;;;16.80;99.90;;;;;;5114635;28;20654;-65
2021/08/27 07:49:30;;;;;;;3.67;3.23;;;16.70;99.90;;;;;;5114731;28;21237;-65
2021/08/27 07:51:57;;;;;;;8.83;3.60;;;16.80;99.90;;;;;;5115962;28;20692;-65
2021/08/27 07:54:24;;;;;;;3.27;2.97;;;16.80;99.90;;;;;;5116861;28;21152;-65
2021/08/27 07:56:53;;;;;;;4.63;3.53;;;17.10;99.90;;;;;;5116511;28;20630;-65
2021/08/27 07:59:19;;;;;;;5.63;3.17;;;17.30;99.90;;;;;;5116474;28;20651;-65
2021/08/27 08:01:46;;;;;;;6.17;2.80;;;17.40;99.90;;;;;;5116194;28;21145;-66
2021/08/27 08:04:13;;;;;;;4.30;3.70;;;17.10;99.90;;;;;;5115397;28;20616;-66
2021/08/27 08:06:39;;;;;;;5.60;2.70;;;16.90;99.90;;;;;;5114830;28;20958;-66
2021/08/27 08:09:06;;;;;;;6.93;3.17;;;17.20;99.90;;;;;;5116532;28;21030;-66
2021/08/27 08:11:33;;;;;;;4.30;2.37;;;17.90;99.90;;;;;;5117091;28;20616;-66
2021/08/27 08:14:00;;;;;;;3.10;2.60;;;18.50;99.90;;;;;;5117813;28;21126;-67
2021/08/27 08:16:27;;;;;;;2.97;2.77;;;18.90;30.50;;;;;;5116769;28;20631;-66
2021/08/27 08:18:53;;;;;;;4.20;2.43;;;19.10;45.80;;;;;;5118090;28;20647;-66
2021/08/27 08:21:23;;;;;;;3.20;2.67;;;19.10;1.00;;;;;;5117795;28;20658;-66
2021/08/27 08:23:53;;;;;;;4.90;2.97;;;19.20;1.00;;;;;;5117401;28;20642;-66
2021/08/27 08:26:20;;;;;;;3.63;2.13;;;18.90;19.20;;;;;;5115604;28;20626;-66
2021/08/27 08:28:48;;;;;;;5.17;2.60;;;18.40;91.60;;;;;;5116721;28;20591;-66
2021/08/27 08:31:20;;;;;;;5.30;3.80;;;18.30;64.30;;;;;;5117564;28;20614;-66
2021/08/27 08:33:53;;;;;;;4.00;2.87;;;18.00;99.90;;;;;;5121074;28;20564;-66
2021/08/27 08:36:21;;;;;;;9.00;2.20;;;18.20;35.20;;;;;;5122821;28;20603;-66
2021/08/27 08:38:49;;;;;;;2.23;2.07;;;18.20;1.00;;;;;;5121854;28;20655;-66
2021/08/27 08:41:16;;;;;;;3.87;1.57;;;18.40;1.00;;;;;;5122836;28;21167;-66
2021/08/27 08:43:45;;;;;;;3.70;1.97;;;18.90;1.00;;;;;;5124492;28;20604;-66
2021/08/27 08:46:13;;;;;;;3.40;2.37;;;18.70;1.00;;;;;;5123602;28;20596;-66
2021/08/27 08:48:43;;;;;;;6.50;2.20;;;19.30;1.00;;;;;;5124189;28;21278;-66
2021/08/27 08:51:11;;;;;;;15.43;2.50;;;19.50;1.00;;;;;;5122330;28;20679;-67
2021/08/27 08:53:42;;;;;;;6.27;2.30;;;18.40;1.00;;;;;;5120505;28;20662;-66
2021/08/27 08:56:09;;;;;;;2.83;2.10;;;18.20;1.00;;;;;;5119244;28;20711;-66
2021/08/27 08:58:36;;;;;;;2.87;2.67;;;18.00;25.50;;;;;;5119233;28;20632;-66
2021/08/27 09:01:03;;;;;;;6.57;2.77;;;17.60;72.60;;;;;;5120101;28;20627;-66
2021/08/27 09:03:31;;;;;;;3.70;2.40;;;17.50;98.10;;;;;;5120649;28;20607;-65
2021/08/27 09:05:58;;;;;;;2.47;2.27;;;17.80;59.70;;;;;;5120751;28;20604;-64
2021/08/27 09:08:39;;;;;;;6.07;2.90;;;17.80;28.40;;;;;;5119994;28;20604;-65
2021/08/27 09:11:14;;;;;;;5.77;2.87;;;17.60;11.30;;;;;;5119575;28;20564;-65
2021/08/27 09:13:45;;;;;;;4.97;3.23;;;17.50;1.20;;;;;;5120246;28;20615;-65
2021/08/27 09:16:12;;;;;;;9.83;3.40;;;17.30;20.40;;;;;;5119381;28;20626;-65
2021/08/27 09:18:46;;;;;;;5.50;3.00;;;17.40;40.80;;;;;;5119813;28;20656;-65
2021/08/27 09:21:31;;;;;;;5.50;3.03;;;17.70;47.70;;;;;;5120932;28;20708;-65
2021/08/27 09:24:13;;;;;;;6.53;2.17;;;18.30;50.70;;;;;;5119620;28;20604;-65
2021/08/27 09:26:40;;;;;;;5.67;3.10;;;18.70;99.90;;;;;;5119704;28;20604;-65
2021/08/27 09:29:07;;;;;;;2.50;2.23;;;19.10;99.90;;;;;;5121135;28;20623;-66
2021/08/27 09:31:35;;;;;;;4.97;2.70;;;20.00;99.90;;;;;;5103375;28;20618;-66
2021/08/27 09:34:02;;;;;;;7.30;3.03;;;20.30;99.90;;;;;;5122128;28;20611;-65
2021/08/27 09:36:30;;;;;;;2.57;2.27;;;19.40;99.90;;;;;;5123107;28;20604;-66
2021/08/27 09:39:08;;;;;;;5.77;3.63;;;19.90;99.90;;;;;;5122625;28;20636;-65
2021/08/27 09:41:35;;;;;;;2.23;1.87;;;18.60;99.90;;;;;;5121309;28;20666;-66
2021/08/27 09:44:02;;;;;;;3.70;2.90;;;18.90;99.90;;;;;;5119988;28;20600;-67
2021/08/27 09:46:36;;;;;;;3.57;2.73;;;18.90;99.90;;;;;;5122357;28;20599;-65
2021/08/27 09:49:24;;;;;;;3.43;2.40;;;18.60;99.90;;;;;;5120719;28;21220;-65
2021/08/27 09:51:51;;;;;;;2.90;2.27;;;18.60;99.90;;;;;;5103825;28;21166;-65
2021/08/27 09:54:29;;;;;;;2.80;2.60;;;19.20;99.90;;;;;;5123949;28;20607;-65
2021/08/27 09:56:58;;;;;;;4.53;2.20;;;19.40;99.90;;;;;;5122370;28;20574;-66
2021/08/27 09:59:43;;;;;;;5.20;3.07;;;19.40;99.90;;;;;;5121232;28;20744;-65
2021/08/27 10:02:12;;;;;;;5.33;2.70;;;19.30;99.90;;;;;;5123726;28;20622;-66
2021/08/27 10:04:59;;;;;;;7.30;3.10;;;19.80;99.90;;;;;;5120737;28;20616;-66
2021/08/27 10:07:34;;;;;;;4.27;2.70;;;19.80;99.90;;;;;;5121095;28;20618;-66
2021/08/27 10:10:13;;;;;;;7.27;3.17;;;19.90;99.90;;;;;;5122652;28;20653;-65
2021/08/27 10:12:43;;;;;;;3.20;2.70;;;19.60;99.90;;;;;;5105981;28;20577;-66
2021/08/27 10:15:11;;;;;;;3.53;2.43;;;19.00;99.90;;;;;;5125431;28;20595;-66
2021/08/27 10:17:40;;;;;;;3.03;2.70;;;19.10;99.90;;;;;;5123255;28;20642;-66
2021/08/27 10:20:09;;;;;;;6.30;2.23;;;19.10;99.90;;;;;;5123967;28;21211;-66
2021/08/27 10:22:41;;;;;;;7.77;3.00;;;19.10;99.90;;;;;;5123411;28;20611;-66
2021/08/27 10:25:12;;;;;;;3.27;3.00;;;18.90;99.90;;;;;;5125149;28;20576;-67
2021/08/27 10:27:39;;;;;;;4.40;3.30;;;18.80;99.90;;;;;;5105463;28;20612;-66
2021/08/27 10:30:07;;;;;;;3.13;2.57;;;18.60;99.90;;;;;;5124552;28;20600;-66
2021/08/27 10:32:39;;;;;;;3.57;2.70;;;18.50;99.90;;;;;;5124126;28;20973;-67
2021/08/27 10:35:25;;;;;;;4.73;2.87;;;18.40;99.90;;;;;;5124935;28;20600;-65
2021/08/27 10:37:53;;;;;;;5.43;3.73;;;18.30;77.40;;;;;;5125080;28;20591;-65
2021/08/27 10:40:23;;;;;;;6.97;3.70;;;18.20;87.40;;;;;;5100234;28;20655;-66
2021/08/27 10:42:50;;;;;;;5.17;3.40;;;18.10;56.30;;;;;;5118284;28;21038;-66
2021/08/27 10:45:40;;;;;;;6.43;3.80;;;18.10;58.70;;;;;;5117700;28;20609;-66
2021/08/27 10:48:26;;;;;;;3.73;3.43;;;18.10;50.20;;;;;;5118690;28;20640;-68
2021/08/27 10:50:54;;;;;;;5.80;4.30;;;18.00;87.40;;;;;;5117740;28;20536;-66
2021/08/27 10:53:35;;;;;;;5.20;3.80;;;18.10;80.90;;;;;;5118892;28;20640;-67
2021/08/27 10:56:07;;;;;;;3.70;3.40;;;18.20;99.90;;;;;;5121970;28;20607;-67
2021/08/27 10:58:43;;;;;;;4.00;3.60;;;18.30;99.90;;;;;;5102636;28;20667;-67
2021/08/27 11:01:26;;;;;;;5.40;3.20;;;18.50;99.90;;;;;;5117997;28;20616;-67
2021/08/27 11:04:07;;;;;;;3.10;2.80;;;18.70;96.30;;;;;;5120284;28;20722;-66
2021/08/27 11:06:49;;;;;;;3.43;2.70;;;18.80;99.90;;;;;;5119938;28;20632;-67
2021/08/27 11:09:17;;;;;;;3.43;3.07;;;19.00;99.90;;;;;;5116716;28;20616;-67
2021/08/27 11:11:44;;;;;;;8.00;2.70;;;19.10;99.90;;;;;;5116702;28;20715;-67
2021/08/27 11:14:18;;;;;;;10.40;4.30;;;19.00;99.90;;;;;;5115792;28;20617;-67
2021/08/27 11:17:03;;;;;;;6.40;3.50;;;18.80;99.90;;;;;;5116331;28;21086;-67
2021/08/27 11:19:46;;;;;;;6.80;3.30;;;18.80;99.90;;;;;;5118349;28;20620;-67
2021/08/27 11:22:20;;;;;;;5.13;3.20;;;18.80;99.90;;;;;;5116776;28;20617;-66
2021/08/27 11:25:10;;;;;;;6.47;3.50;;;19.50;99.90;;;;;;5116219;28;20560;-66
2021/08/27 11:27:37;;;;;;;5.33;2.90;;;20.00;99.90;;;;;;5115798;28;20620;-66
2021/08/27 11:30:28;;;;;;;5.10;3.00;;;20.00;99.90;;;;;;5115519;28;20617;-66
2021/08/27 11:32:56;;;;;;;5.90;3.60;;;19.80;99.90;;;;;;5115811;28;20614;-66
2021/08/27 11:35:22;;;;;;;5.03;3.60;;;19.50;99.90;;;;;;5115150;28;20616;-66
2021/08/27 11:37:58;;;;;;;9.97;3.40;;;19.10;99.90;;;;;;5096867;28;20611;-66
2021/08/27 11:40:25;;;;;;;11.83;3.57;;;18.90;99.90;;;;;;5114709;28;20604;-66
2021/08/27 11:42:56;;;;;;;3.53;3.23;;;19.10;99.90;;;;;;5115333;28;20585;-66
2021/08/27 11:45:25;;;;;;;3.57;3.37;;;19.30;99.90;;;;;;5115151;28;21153;-66
2021/08/27 11:48:00;;;;;;;5.83;3.30;;;19.50;99.90;;;;;;5114949;28;20638;-66
2021/08/27 11:50:34;;;;;;;3.73;3.40;;;19.30;99.90;;;;;;5115439;28;20564;-66
2021/08/27 11:53:03;;;;;;;6.93;3.90;;;19.00;99.90;;;;;;5115110;28;20585;-66
2021/08/27 11:55:30;;;;;;;5.97;3.33;;;19.30;99.90;;;;;;5115349;28;20615;-66
2021/08/27 11:58:00;;;;;;;4.10;3.70;;;19.10;99.90;;;;;;5114867;28;20628;-66
2021/08/27 12:00:37;;;;;;;3.30;3.10;;;18.80;99.90;;;;;;5115179;28;21146;-66
2021/08/27 12:03:04;;;;;;;3.40;3.10;;;18.70;99.90;;;;;;5115300;28;21145;-66
2021/08/27 12:05:31;;;;;;;3.60;3.30;;;19.10;99.90;;;;;;5115909;28;21131;-66
2021/08/27 12:08:00;;;;;;;3.37;2.87;;;19.40;99.90;;;;;;5115748;28;20970;-66
2021/08/27 12:10:30;;;;;;;3.13;2.93;;;19.90;99.90;;;;;;5115026;28;20612;-65
2021/08/27 12:12:58;;;;;;;5.30;3.23;;;20.20;99.90;;;;;;5115782;28;20909;-67
2021/08/27 12:15:29;;;;;;;3.60;3.40;;;19.60;99.90;;;;;;5114754;28;20616;-66
2021/08/27 12:18:01;;;;;;;3.80;3.60;;;20.20;99.90;;;;;;5114666;28;20564;-66
2021/08/27 12:20:33;;;;;;;5.97;3.90;;;19.60;99.90;;;;;;5114521;28;20600;-66
2021/08/27 12:23:06;;;;;;;4.00;3.70;;;19.90;99.90;;;;;;5114771;28;21102;-67
2021/08/27 12:25:39;;;;;;;6.20;3.63;;;19.80;99.90;;;;;;5114562;28;20591;-66
2021/08/27 12:28:07;;;;;;;4.27;3.53;;;20.20;99.90;;;;;;5114418;28;20972;-66
2021/08/27 12:30:34;;;;;;;4.40;3.30;;;21.50;99.90;;;;;;5114035;28;21061;-66
2021/08/27 12:33:03;;;;;;;3.80;3.50;;;22.40;99.90;;;;;;5116571;28;20954;-66
2021/08/27 12:35:32;;;;;;;3.50;3.20;;;23.20;99.90;;;;;;5116418;28;20628;-66
2021/08/27 12:38:01;;;;;;;4.37;3.00;;;23.20;99.90;;;;;;5116183;28;20627;-66
2021/08/27 12:40:29;;;;;;;3.03;2.83;;;22.80;99.90;;;;;;5115088;28;20648;-67
2021/08/27 12:43:08;;;;;;;3.23;3.03;;;22.60;99.90;;;;;;5114378;28;20576;-66
2021/08/27 12:45:54;;;;;;;7.73;3.57;;;22.50;99.90;;;;;;5114236;28;20983;-66
2021/08/27 12:48:24;;;;;;;4.20;3.20;;;23.10;99.90;;;;;;5114257;28;20620;-66
2021/08/27 12:51:00;;;;;;;3.50;3.10;;;21.80;99.90;;;;;;5114323;28;21088;-66
2021/08/27 12:53:29;;;;;;;4.60;3.90;;;21.60;99.90;;;;;;5079911;28;20628;-66
2021/08/27 12:56:17;;;;;;;3.20;2.30;;;21.30;99.90;;;;;;5114326;28;21094;-66
2021/08/27 12:58:48;;;;;;;5.07;3.73;;;20.60;99.90;;;;;;5114034;28;20628;-66
2021/08/27 13:01:16;;;;;;;3.60;3.30;;;20.50;99.90;;;;;;5113369;28;20623;-66